createdAt,value
2022-08-24T00:00:22.904Z,20.54
2022-08-24T00:01:25.255Z,20.53
2022-08-24T00:02:27.213Z,20.43
2022-08-24T00:03:34.149Z,20.32
2022-08-24T00:04:36.823Z,20.10
2022-08-24T00:05:38.412Z,19.98
2022-08-24T00:06:40.039Z,19.96
2022-08-24T00:07:41.869Z,19.97
2022-08-24T00:08:44.810Z,19.98
2022-08-24T00:09:49.983Z,19.91
2022-08-24T00:10:52.689Z,19.83
2022-08-24T00:11:54.388Z,19.75
2022-08-24T00:12:55.958Z,19.67
2022-08-24T00:13:57.668Z,19.53
2022-08-24T00:15:00.095Z,19.33
2022-08-24T00:16:02.716Z,19.18
2022-08-24T00:17:05.060Z,19.09
2022-08-24T00:18:07.195Z,19.00
2022-08-24T00:19:09.047Z,18.93
2022-08-24T00:20:12.393Z,18.91
2022-08-24T00:21:14.335Z,18.94
2022-08-24T00:22:16.100Z,19.04
2022-08-24T00:23:17.659Z,19.21
2022-08-24T00:24:20.042Z,19.31
2022-08-24T00:25:22.008Z,19.32
2022-08-24T00:26:29.063Z,19.35
2022-08-24T00:27:31.453Z,19.43
2022-08-24T00:28:33.157Z,19.43
2022-08-24T00:29:35.373Z,19.39
2022-08-24T00:30:37.105Z,19.31
2022-08-24T00:31:39.183Z,19.28
2022-08-24T00:32:41.908Z,19.24
2022-08-24T00:33:43.596Z,19.07
2022-08-24T00:34:58.114Z,19.04
2022-08-24T00:36:01.458Z,19.04
2022-08-24T00:37:04.027Z,19.03
2022-08-24T00:38:05.923Z,19.05
2022-08-24T00:39:08.763Z,19.12
2022-08-24T00:40:17.549Z,19.15
2022-08-24T00:41:19.269Z,19.16
2022-08-24T00:42:20.966Z,19.20
2022-08-24T00:43:25.633Z,19.24
2022-08-24T00:44:27.254Z,19.30
2022-08-24T00:45:29.686Z,19.33
2022-08-24T00:46:44.415Z,19.26
2022-08-24T00:47:56.888Z,19.26
2022-08-24T00:49:08.014Z,19.22
2022-08-24T00:50:14.319Z,19.21
2022-08-24T00:51:26.183Z,19.18
2022-08-24T00:52:33.404Z,19.22
2022-08-24T00:53:40.155Z,19.22
2022-08-24T00:54:53.276Z,19.21
2022-08-24T00:55:58.342Z,19.22
2022-08-24T00:57:04.397Z,19.32
2022-08-24T00:58:17.132Z,19.38
2022-08-24T00:59:37.078Z,19.35
2022-08-24T01:00:49.297Z,19.24
2022-08-24T01:01:52.361Z,19.22
2022-08-24T01:02:58.691Z,19.22
2022-08-24T01:04:01.469Z,19.21
2022-08-24T01:05:06.985Z,19.18
2022-08-24T01:06:09.661Z,19.16
2022-08-24T01:07:11.832Z,19.17
2022-08-24T01:09:32.585Z,19.41
2022-08-24T01:10:41.675Z,19.43
2022-08-24T01:11:43.399Z,19.39
2022-08-24T01:13:01.103Z,19.40
2022-08-24T01:14:04.282Z,19.45
2022-08-24T01:15:09.277Z,19.40
2022-08-24T01:16:13.427Z,19.38
2022-08-24T01:17:39.197Z,19.42
2022-08-24T01:18:51.378Z,19.35
2022-08-24T01:19:57.181Z,19.29
2022-08-24T01:21:22.461Z,19.27
2022-08-24T01:22:42.974Z,19.28
2022-08-24T01:23:56.104Z,19.36
2022-08-24T01:24:57.699Z,19.48
2022-08-24T01:26:00.487Z,19.58
2022-08-24T01:27:08.461Z,19.68
2022-08-24T01:28:16.673Z,19.74
2022-08-24T01:29:27.680Z,19.83
2022-08-24T01:30:30.494Z,19.89
2022-08-24T01:31:37.801Z,19.92
2022-08-24T01:32:40.762Z,19.97
2022-08-24T01:33:42.605Z,20.02
2022-08-24T01:34:44.352Z,20.01
2022-08-24T01:35:46.636Z,20.08
2022-08-24T01:36:51.803Z,20.09
2022-08-24T01:37:56.026Z,19.91
2022-08-24T01:39:02.281Z,19.92
2022-08-24T01:40:07.416Z,19.89
2022-08-24T01:41:09.104Z,19.85
2022-08-24T01:42:17.236Z,19.93
2022-08-24T01:43:18.868Z,19.98
2022-08-24T01:44:22.744Z,20.04
2022-08-24T01:45:24.332Z,20.11
2022-08-24T01:46:26.750Z,20.17
2022-08-24T01:47:29.170Z,20.21
2022-08-24T01:48:31.482Z,20.28
2022-08-24T01:49:36.970Z,20.36
2022-08-24T01:50:38.659Z,20.43
2022-08-24T01:51:42.491Z,20.48
2022-08-24T01:53:04.446Z,20.55
2022-08-24T01:54:07.680Z,20.66
2022-08-24T01:55:12.014Z,20.68
2022-08-24T01:56:13.675Z,20.73
2022-08-24T01:57:16.337Z,20.74
2022-08-24T01:58:18.876Z,20.74
2022-08-24T01:59:20.928Z,20.76
2022-08-24T02:00:22.790Z,20.75
2022-08-24T02:01:25.699Z,20.73
2022-08-24T02:02:31.137Z,20.75
2022-08-24T02:03:32.762Z,20.76
2022-08-24T02:04:36.327Z,20.77
2022-08-24T02:05:38.113Z,20.81
2022-08-24T02:06:39.810Z,20.85
2022-08-24T02:07:41.763Z,20.89
2022-08-24T02:08:43.355Z,20.92
2022-08-24T02:09:45.149Z,20.95
2022-08-24T02:10:50.950Z,20.96
2022-08-24T02:11:58.615Z,20.99
2022-08-24T02:13:00.440Z,21.01
2022-08-24T02:14:02.082Z,21.01
2022-08-24T02:15:06.310Z,20.98
2022-08-24T02:16:08.152Z,20.98
2022-08-24T02:17:10.307Z,20.96
2022-08-24T02:18:15.675Z,20.95
2022-08-24T02:19:17.451Z,20.91
2022-08-24T02:20:21.576Z,20.93
2022-08-24T02:21:24.175Z,20.94
2022-08-24T02:22:25.915Z,20.94
2022-08-24T02:23:28.816Z,20.88
2022-08-24T02:24:30.563Z,20.73
2022-08-24T02:25:32.779Z,20.52
2022-08-24T02:26:34.385Z,20.31
2022-08-24T02:27:36.006Z,20.17
2022-08-24T02:28:38.981Z,19.97
2022-08-24T02:29:40.583Z,19.66
2022-08-24T02:30:42.445Z,19.45
2022-08-24T02:31:44.108Z,19.22
2022-08-24T02:32:45.884Z,19.09
2022-08-24T02:33:47.540Z,18.99
2022-08-24T02:34:49.187Z,18.87
2022-08-24T02:35:54.407Z,18.69
2022-08-24T02:36:55.972Z,18.59
2022-08-24T02:37:58.625Z,18.57
2022-08-24T02:39:00.275Z,18.50
2022-08-24T02:40:02.244Z,18.39
2022-08-24T02:41:04.669Z,18.28
2022-08-24T02:42:06.559Z,18.24
2022-08-24T02:43:08.135Z,18.20
2022-08-24T02:44:09.705Z,18.23
2022-08-24T02:45:11.557Z,18.24
2022-08-24T02:46:21.207Z,18.25
2022-08-24T02:47:22.861Z,18.30
2022-08-24T02:48:40.052Z,18.38
2022-08-24T02:49:41.681Z,18.39
2022-08-24T02:50:46.455Z,18.39
2022-08-24T02:51:48.347Z,18.42
2022-08-24T02:52:50.307Z,18.44
2022-08-24T02:53:52.201Z,18.46
2022-08-24T02:54:53.764Z,18.42
2022-08-24T02:55:55.359Z,18.40
2022-08-24T02:56:56.945Z,18.36
2022-08-24T02:57:58.674Z,18.36
2022-08-24T02:59:01.352Z,18.31
2022-08-24T03:00:10.103Z,18.36
2022-08-24T03:01:14.364Z,18.44
2022-08-24T03:02:19.546Z,18.40
2022-08-24T03:03:21.131Z,18.41
2022-08-24T03:04:22.800Z,18.49
2022-08-24T03:05:25.998Z,18.51
2022-08-24T03:06:27.589Z,18.61
2022-08-24T03:07:29.193Z,18.71
2022-08-24T03:08:30.791Z,18.84
2022-08-24T03:09:36.282Z,18.89
2022-08-24T03:10:37.939Z,18.90
2022-08-24T03:11:40.414Z,18.89
2022-08-24T03:12:47.604Z,18.86
2022-08-24T03:13:49.306Z,18.81
2022-08-24T03:14:50.896Z,18.79
2022-08-24T03:15:52.631Z,18.76
2022-08-24T03:16:54.341Z,18.75
2022-08-24T03:17:56.323Z,18.76
2022-08-24T03:18:58.023Z,18.72
2022-08-24T03:20:00.798Z,18.69
2022-08-24T03:21:03.774Z,18.77
2022-08-24T03:22:05.541Z,18.79
2022-08-24T03:23:07.174Z,18.76
2022-08-24T03:24:09.460Z,18.77
2022-08-24T03:25:11.447Z,18.75
2022-08-24T03:26:13.701Z,18.74
2022-08-24T03:27:15.426Z,18.75
2022-08-24T03:28:17.344Z,18.84
2022-08-24T03:29:20.423Z,18.92
2022-08-24T03:30:25.738Z,18.96
2022-08-24T03:31:27.424Z,18.98
2022-08-24T03:32:29.029Z,18.99
2022-08-24T03:33:31.101Z,18.97
2022-08-24T03:34:32.695Z,18.96
2022-08-24T03:35:34.270Z,18.94
2022-08-24T03:36:35.831Z,18.96
2022-08-24T03:37:37.991Z,18.94
2022-08-24T03:38:39.672Z,18.93
2022-08-24T03:39:41.356Z,18.89
2022-08-24T03:40:43.136Z,18.91
2022-08-24T03:41:45.984Z,18.84
2022-08-24T03:42:47.584Z,18.82
2022-08-24T03:43:51.389Z,18.81
2022-08-24T03:44:53.034Z,18.69
2022-08-24T03:45:54.652Z,18.66
2022-08-24T03:46:56.514Z,18.58
2022-08-24T03:47:58.545Z,18.53
2022-08-24T03:49:00.171Z,18.53
2022-08-24T03:50:02.034Z,18.50
2022-08-24T03:51:03.851Z,18.47
2022-08-24T03:52:06.852Z,18.56
2022-08-24T03:53:08.424Z,18.60
2022-08-24T03:54:11.603Z,18.63
2022-08-24T03:55:13.833Z,18.59
2022-08-24T03:56:15.577Z,18.57
2022-08-24T03:57:17.159Z,18.58
2022-08-24T03:58:18.965Z,18.54
2022-08-24T03:59:20.736Z,18.53
2022-08-24T04:00:22.438Z,18.58
2022-08-24T04:01:24.673Z,18.66
2022-08-24T04:02:30.106Z,18.67
2022-08-24T04:03:40.356Z,18.72
2022-08-24T04:04:42.003Z,18.92
2022-08-24T04:05:45.863Z,19.03
2022-08-24T04:06:49.245Z,19.11
2022-08-24T04:07:50.861Z,19.17
2022-08-24T04:08:53.219Z,19.23
2022-08-24T04:09:54.816Z,19.24
2022-08-24T04:10:56.449Z,19.22
2022-08-24T04:11:58.125Z,19.11
2022-08-24T04:13:01.585Z,19.02
2022-08-24T04:14:04.221Z,18.93
2022-08-24T04:15:07.101Z,18.90
2022-08-24T04:16:12.862Z,18.89
2022-08-24T04:17:17.802Z,18.89
2022-08-24T04:18:19.932Z,18.88
2022-08-24T04:19:21.825Z,18.87
2022-08-24T04:20:24.170Z,18.92
2022-08-24T04:21:35.452Z,18.99
2022-08-24T04:22:37.325Z,19.11
2022-08-24T04:23:46.683Z,19.21
2022-08-24T04:24:49.584Z,19.24
2022-08-24T04:25:51.157Z,19.21
2022-08-24T04:26:52.818Z,19.08
2022-08-24T04:27:54.852Z,19.13
2022-08-24T04:28:57.747Z,19.23
2022-08-24T04:30:00.267Z,19.23
2022-08-24T04:31:05.515Z,19.10
2022-08-24T04:32:07.749Z,19.04
2022-08-24T04:33:13.846Z,18.94
2022-08-24T04:34:16.632Z,18.88
2022-08-24T04:35:18.305Z,18.85
2022-08-24T04:36:21.548Z,18.83
2022-08-24T04:37:29.113Z,18.77
2022-08-24T04:38:31.629Z,18.86
2022-08-24T04:39:33.721Z,18.99
2022-08-24T04:40:35.728Z,19.10
2022-08-24T04:41:38.121Z,19.11
2022-08-24T04:42:40.650Z,19.07
2022-08-24T04:43:45.166Z,19.06
2022-08-24T04:44:47.841Z,19.05
2022-08-24T04:45:51.417Z,19.07
2022-08-24T04:46:53.320Z,19.01
2022-08-24T04:47:55.161Z,18.97
2022-08-24T04:48:58.686Z,18.87
2022-08-24T04:50:00.343Z,18.85
2022-08-24T04:51:04.675Z,18.85
2022-08-24T04:52:08.296Z,18.88
2022-08-24T04:53:11.953Z,18.88
2022-08-24T04:54:13.657Z,18.89
2022-08-24T04:55:15.648Z,18.94
2022-08-24T04:56:24.876Z,18.96
2022-08-24T04:57:26.524Z,19.01
2022-08-24T04:58:30.146Z,19.02
2022-08-24T04:59:31.734Z,19.03
2022-08-24T05:00:33.583Z,19.03
2022-08-24T05:01:35.362Z,19.12
2022-08-24T05:02:44.724Z,19.13
2022-08-24T05:03:49.220Z,19.19
2022-08-24T05:04:50.824Z,19.26
2022-08-24T05:05:52.948Z,19.31
2022-08-24T05:06:54.594Z,19.42
2022-08-24T05:07:56.764Z,19.54
2022-08-24T05:09:00.391Z,19.71
2022-08-24T05:10:02.640Z,19.88
2022-08-24T05:11:08.639Z,19.99
2022-08-24T05:12:11.811Z,20.07
2022-08-24T05:13:14.787Z,20.09
2022-08-24T05:14:16.484Z,20.09
2022-08-24T05:15:18.241Z,20.01
2022-08-24T05:16:20.118Z,19.94
2022-08-24T05:17:21.735Z,19.87
2022-08-24T05:18:23.296Z,19.72
2022-08-24T05:19:25.102Z,19.60
2022-08-24T05:20:27.288Z,19.66
2022-08-24T05:21:30.877Z,19.54
2022-08-24T05:22:32.454Z,19.39
2022-08-24T05:23:35.242Z,19.27
2022-08-24T05:24:36.841Z,19.20
2022-08-24T05:25:39.558Z,19.21
2022-08-24T05:26:41.273Z,19.20
2022-08-24T05:27:43.918Z,19.23
2022-08-24T05:28:45.957Z,19.20
2022-08-24T05:29:47.605Z,19.30
2022-08-24T05:30:51.112Z,19.42
2022-08-24T05:31:53.522Z,19.57
2022-08-24T05:32:55.479Z,19.70
2022-08-24T05:33:58.647Z,19.77
2022-08-24T05:35:01.693Z,19.81
2022-08-24T05:36:04.776Z,19.77
2022-08-24T05:37:06.476Z,19.70
2022-08-24T05:38:09.297Z,19.66
2022-08-24T05:39:13.577Z,19.68
2022-08-24T05:40:18.716Z,19.69
2022-08-24T05:41:20.922Z,19.61
2022-08-24T05:42:22.542Z,19.55
2022-08-24T05:43:24.436Z,19.51
2022-08-24T05:44:30.762Z,19.47
2022-08-24T05:45:32.811Z,19.37
2022-08-24T05:46:34.926Z,19.48
2022-08-24T05:47:36.933Z,19.61
2022-08-24T05:48:38.943Z,19.67
2022-08-24T05:49:41.759Z,19.83
2022-08-24T05:50:43.495Z,19.90
2022-08-24T05:51:45.103Z,19.97
2022-08-24T05:52:46.704Z,20.01
2022-08-24T05:53:48.434Z,20.06
2022-08-24T05:54:56.548Z,20.22
2022-08-24T05:55:58.183Z,20.28
2022-08-24T05:57:04.743Z,20.27
2022-08-24T05:58:06.666Z,20.35
2022-08-24T05:59:08.246Z,20.49
2022-08-24T06:00:12.285Z,20.69
2022-08-24T06:01:18.048Z,20.94
2022-08-24T06:02:20.361Z,21.07
2022-08-24T06:03:22.028Z,21.18
2022-08-24T06:04:24.062Z,21.28
2022-08-24T06:05:27.964Z,21.43
2022-08-24T06:06:29.576Z,21.59
2022-08-24T06:07:31.162Z,21.62
2022-08-24T06:08:40.635Z,21.46
2022-08-24T06:09:43.178Z,21.35
2022-08-24T06:10:47.858Z,21.58
2022-08-24T06:11:49.515Z,21.85
2022-08-24T06:12:51.351Z,22.12
2022-08-24T06:13:56.301Z,22.33
2022-08-24T06:15:00.862Z,22.25
2022-08-24T06:16:47.926Z,22.22
2022-08-24T06:17:35.695Z,22.24
2022-08-24T06:18:38.727Z,22.38
2022-08-24T06:19:40.609Z,22.35
2022-08-24T06:20:42.879Z,22.27
2022-08-24T06:21:50.807Z,22.49
2022-08-24T06:22:52.398Z,22.72
2022-08-24T06:23:54.396Z,22.90
2022-08-24T06:25:14.543Z,23.05
2022-08-24T06:26:34.962Z,23.41
2022-08-24T06:27:36.943Z,23.69
2022-08-24T06:28:38.548Z,23.72
2022-08-24T06:29:40.103Z,23.62
2022-08-24T06:30:42.936Z,23.50
2022-08-24T06:31:47.078Z,23.45
2022-08-24T06:32:48.730Z,23.50
2022-08-24T06:33:52.162Z,23.72
2022-08-24T06:34:56.779Z,23.92
2022-08-24T06:35:58.774Z,24.06
2022-08-24T06:37:01.929Z,24.24
2022-08-24T06:38:04.529Z,24.52
2022-08-24T06:39:07.080Z,24.70
2022-08-24T06:40:11.555Z,24.90
2022-08-24T06:41:13.235Z,25.01
2022-08-24T06:42:14.801Z,25.04
2022-08-24T06:43:16.834Z,25.02
2022-08-24T06:44:18.854Z,25.23
2022-08-24T06:45:22.172Z,25.50
2022-08-24T06:46:26.484Z,25.71
2022-08-24T06:47:29.871Z,25.92
2022-08-24T06:48:31.940Z,26.09
2022-08-24T06:49:33.548Z,26.16
2022-08-24T06:50:35.578Z,26.24
2022-08-24T06:51:37.149Z,26.40
2022-08-24T06:52:39.647Z,26.41
2022-08-24T06:53:41.726Z,26.50
2022-08-24T06:54:43.329Z,26.68
2022-08-24T06:56:00.566Z,26.78
2022-08-24T06:57:02.495Z,26.55
2022-08-24T06:58:04.621Z,26.30
2022-08-24T06:59:06.613Z,26.01
2022-08-24T07:00:10.347Z,25.82
2022-08-24T07:01:17.560Z,25.95
2022-08-24T07:02:19.536Z,26.10
2022-08-24T07:03:21.265Z,26.11
2022-08-24T07:04:28.004Z,25.86
2022-08-24T07:05:30.227Z,26.02
2022-08-24T07:06:31.851Z,26.26
2022-08-24T07:07:33.481Z,26.42
2022-08-24T07:08:36.030Z,26.55
2022-08-24T07:09:37.979Z,26.72
2022-08-24T07:10:39.679Z,26.85
2022-08-24T07:11:41.861Z,26.91
2022-08-24T07:12:43.467Z,26.94
2022-08-24T07:13:49.609Z,26.99
2022-08-24T07:14:51.257Z,27.06
2022-08-24T07:15:53.648Z,27.11
2022-08-24T07:16:55.547Z,27.11
2022-08-24T07:17:57.646Z,27.27
2022-08-24T07:18:59.551Z,27.38
2022-08-24T07:20:01.899Z,27.46
2022-08-24T07:21:04.155Z,27.51
2022-08-24T07:22:05.777Z,27.50
2022-08-24T07:23:07.696Z,27.56
2022-08-24T07:24:10.680Z,27.65
2022-08-24T07:25:13.175Z,27.65
2022-08-24T07:26:22.757Z,27.59
2022-08-24T07:27:24.487Z,27.33
2022-08-24T07:28:27.692Z,27.10
2022-08-24T07:29:56.506Z,27.04
2022-08-24T07:30:55.140Z,26.91
2022-08-24T07:31:57.181Z,26.87
2022-08-24T07:32:59.208Z,26.94
2022-08-24T07:34:00.828Z,26.88
2022-08-24T07:35:02.548Z,26.82
2022-08-24T07:36:04.501Z,26.71
2022-08-24T07:37:07.907Z,26.57
2022-08-24T07:38:12.543Z,26.58
2022-08-24T07:39:14.394Z,26.74
2022-08-24T07:40:17.246Z,26.83
2022-08-24T07:41:40.306Z,26.79
2022-08-24T07:42:41.604Z,26.90
2022-08-24T07:43:43.256Z,26.87
2022-08-24T07:44:44.941Z,26.81
2022-08-24T07:45:48.021Z,26.75
2022-08-24T07:46:49.867Z,26.71
2022-08-24T07:49:11.560Z,26.52
2022-08-24T07:50:15.455Z,26.64
2022-08-24T07:51:19.431Z,26.70
2022-08-24T07:52:21.303Z,26.62
2022-08-24T07:53:27.918Z,26.61
2022-08-24T07:54:34.055Z,26.61
2022-08-24T07:55:35.941Z,26.56
2022-08-24T07:56:48.005Z,26.58
2022-08-24T07:57:49.732Z,26.65
2022-08-24T07:58:54.406Z,26.78
2022-08-24T07:59:58.291Z,26.91
2022-08-24T08:00:59.938Z,26.99
2022-08-24T08:02:02.191Z,27.04
2022-08-24T08:03:05.004Z,26.83
2022-08-24T08:04:06.831Z,26.76
2022-08-24T08:05:09.084Z,26.74
2022-08-24T08:06:16.072Z,26.53
2022-08-24T08:07:18.047Z,26.30
2022-08-24T08:08:20.281Z,26.26
2022-08-24T08:09:21.948Z,26.37
2022-08-24T08:10:23.745Z,26.45
2022-08-24T08:11:25.513Z,26.47
2022-08-24T08:12:27.149Z,26.44
2022-08-24T08:13:29.986Z,26.50
2022-08-24T08:14:31.550Z,26.60
2022-08-24T08:15:33.723Z,26.66
2022-08-24T08:16:35.510Z,26.57
2022-08-24T08:17:38.679Z,26.51
2022-08-24T08:18:40.333Z,26.52
2022-08-24T08:19:43.161Z,26.62
2022-08-24T08:20:45.240Z,26.74
2022-08-24T08:22:08.435Z,26.83
2022-08-24T08:23:29.132Z,26.74
2022-08-24T08:24:30.876Z,26.58
2022-08-24T08:25:32.676Z,26.59
2022-08-24T08:26:34.277Z,26.66
2022-08-24T08:27:36.325Z,26.78
2022-08-24T08:28:38.256Z,26.79
2022-08-24T08:29:40.649Z,26.81
2022-08-24T08:30:42.640Z,26.91
2022-08-24T08:31:44.576Z,27.09
2022-08-24T08:32:46.420Z,27.17
2022-08-24T08:33:48.043Z,27.23
2022-08-24T08:34:50.158Z,27.18
2022-08-24T08:35:56.299Z,27.20
2022-08-24T08:36:59.055Z,27.27
2022-08-24T08:38:01.061Z,27.36
2022-08-24T08:39:03.564Z,27.38
2022-08-24T08:40:17.823Z,27.38
2022-08-24T08:41:37.960Z,27.37
2022-08-24T08:43:04.839Z,27.24
2022-08-24T08:44:15.531Z,27.12
2022-08-24T08:45:59.410Z,26.92
2022-08-24T08:47:06.823Z,26.98
2022-08-24T08:48:43.586Z,27.12
2022-08-24T08:50:18.781Z,27.31
2022-08-24T08:52:10.593Z,27.31
2022-08-24T08:53:33.401Z,27.37
2022-08-24T08:55:00.226Z,27.42
2022-08-24T08:56:01.879Z,27.40
2022-08-24T08:57:24.982Z,27.48
2022-08-24T08:58:59.464Z,27.48
2022-08-24T09:00:25.169Z,27.49
2022-08-24T09:01:46.988Z,27.64
2022-08-24T09:03:07.440Z,27.60
2022-08-24T09:04:21.653Z,27.52
2022-08-24T09:05:59.570Z,27.41
2022-08-24T09:07:33.081Z,27.38
2022-08-24T09:08:59.066Z,27.35
2022-08-24T09:10:33.866Z,27.41
2022-08-24T09:11:56.393Z,27.30
2022-08-24T09:13:45.751Z,27.24
2022-08-24T09:15:02.740Z,27.28
2022-08-24T09:16:12.240Z,27.36
2022-08-24T09:17:32.814Z,27.42
2022-08-24T09:18:50.761Z,27.49
2022-08-24T09:20:12.649Z,27.47
2022-08-24T09:21:39.047Z,27.49
2022-08-24T09:22:50.031Z,27.31
2022-08-24T09:24:07.688Z,27.29
2022-08-24T09:25:24.756Z,27.39
2022-08-24T09:26:33.394Z,27.49
2022-08-24T09:28:00.922Z,27.58
2022-08-24T09:30:57.717Z,27.78
2022-08-24T09:32:13.057Z,27.74
2022-08-24T09:33:41.574Z,27.72
2022-08-24T09:34:52.617Z,27.77
2022-08-24T09:36:08.524Z,27.74
2022-08-24T09:37:24.605Z,27.74
2022-08-24T09:38:47.587Z,27.76
2022-08-24T09:40:34.561Z,27.73
2022-08-24T09:42:17.485Z,27.65
2022-08-24T09:43:24.992Z,27.58
2022-08-24T09:44:44.836Z,27.51
2022-08-24T09:46:10.507Z,27.52
2022-08-24T09:47:37.473Z,27.59
2022-08-24T09:48:49.357Z,27.59
2022-08-24T09:49:59.727Z,27.62
2022-08-24T09:51:01.641Z,27.58
2022-08-24T09:52:24.767Z,27.64
2022-08-24T09:54:00.273Z,27.80
2022-08-24T09:55:08.163Z,27.87
2022-08-24T09:56:36.800Z,27.90
2022-08-24T09:57:59.801Z,28.04
2022-08-24T09:59:08.019Z,28.17
2022-08-24T10:00:34.681Z,28.18
2022-08-24T10:01:45.811Z,28.16
2022-08-24T10:03:03.097Z,28.23
2022-08-24T10:04:27.965Z,28.20
2022-08-24T10:06:00.128Z,28.19
2022-08-24T10:07:32.665Z,28.28
2022-08-24T10:08:42.918Z,28.38
2022-08-24T10:10:07.782Z,28.53
2022-08-24T10:11:31.754Z,28.57
2022-08-24T10:12:55.989Z,28.53
2022-08-24T10:14:36.831Z,28.44
2022-08-24T10:15:47.924Z,28.42
2022-08-24T10:17:43.741Z,28.46
2022-08-24T10:19:05.514Z,28.40
2022-08-24T10:20:29.488Z,28.22
2022-08-24T10:21:58.509Z,28.20
2022-08-24T10:23:18.900Z,28.21
2022-08-24T10:24:20.459Z,28.31
2022-08-24T10:25:51.570Z,28.42
2022-08-24T10:27:06.524Z,28.44
2022-08-24T10:28:13.876Z,28.53
2022-08-24T10:30:00.877Z,28.61
2022-08-24T10:31:09.729Z,28.63
2022-08-24T10:32:32.393Z,28.54
2022-08-24T10:34:04.689Z,28.53
2022-08-24T10:35:52.412Z,28.65
2022-08-24T10:37:21.593Z,28.70
2022-08-24T10:38:52.988Z,28.72
2022-08-24T10:40:32.936Z,28.67
2022-08-24T10:41:48.730Z,28.69
2022-08-24T10:43:28.533Z,28.73
2022-08-24T10:44:40.798Z,28.75
2022-08-24T10:45:54.213Z,28.80
2022-08-24T10:47:08.046Z,28.85
2022-08-24T10:48:36.061Z,28.86
2022-08-24T10:49:37.659Z,28.90
2022-08-24T10:50:49.624Z,28.82
2022-08-24T10:52:18.853Z,28.76
2022-08-24T10:53:33.974Z,28.89
2022-08-24T10:54:37.080Z,28.90
2022-08-24T10:55:39.094Z,28.91
2022-08-24T10:57:09.205Z,28.97
2022-08-24T10:58:19.546Z,29.02
2022-08-24T10:59:31.858Z,28.98
2022-08-24T11:00:33.725Z,29.01
2022-08-24T11:01:38.423Z,29.05
2022-08-24T11:02:42.879Z,29.10
2022-08-24T11:04:07.419Z,29.11
2022-08-24T11:05:13.079Z,29.06
2022-08-24T11:06:16.852Z,29.05
2022-08-24T11:07:21.691Z,29.02
2022-08-24T11:08:26.113Z,29.04
2022-08-24T11:10:17.868Z,29.03
2022-08-24T11:11:46.951Z,29.07
2022-08-24T11:12:48.704Z,29.09
2022-08-24T11:13:59.165Z,29.06
2022-08-24T11:15:23.989Z,28.99
2022-08-24T11:16:31.009Z,29.03
2022-08-24T11:17:34.786Z,29.03
2022-08-24T11:18:49.496Z,29.04
2022-08-24T11:19:52.415Z,29.04
2022-08-24T11:20:55.839Z,29.12
2022-08-24T11:22:01.943Z,29.07
2022-08-24T11:23:07.995Z,29.06
2022-08-24T11:24:18.527Z,29.09
2022-08-24T11:25:26.547Z,29.11
2022-08-24T11:26:28.947Z,29.12
2022-08-24T11:27:50.492Z,29.08
2022-08-24T11:29:01.183Z,29.13
2022-08-24T11:30:11.995Z,29.24
2022-08-24T11:31:22.689Z,29.32
2022-08-24T11:32:30.124Z,29.36
2022-08-24T11:33:44.319Z,29.37
2022-08-24T11:34:46.902Z,29.51
2022-08-24T11:35:48.493Z,29.57
2022-08-24T11:36:50.067Z,29.66
2022-08-24T11:37:57.141Z,29.75
2022-08-24T11:39:23.745Z,29.84
2022-08-24T11:40:29.749Z,29.86
2022-08-24T11:41:39.039Z,29.90
2022-08-24T11:42:58.798Z,29.96
2022-08-24T11:44:16.375Z,29.90
2022-08-24T11:45:23.907Z,29.91
2022-08-24T11:46:37.585Z,29.87
2022-08-24T11:47:50.157Z,29.88
2022-08-24T11:49:25.435Z,29.76
2022-08-24T11:50:42.213Z,29.70
2022-08-24T11:52:12.046Z,29.72
2022-08-24T11:55:26.743Z,29.64
2022-08-24T11:56:41.274Z,29.57
2022-08-24T11:58:17.433Z,29.57
2022-08-24T11:59:38.717Z,29.49
2022-08-24T12:00:54.284Z,29.38
2022-08-24T12:02:00.702Z,29.35
2022-08-24T12:03:06.280Z,29.36
2022-08-24T12:04:17.010Z,29.41
2022-08-24T12:05:21.213Z,29.54
2022-08-24T12:06:32.535Z,29.60
2022-08-24T12:07:34.545Z,29.51
2022-08-24T12:08:45.892Z,29.53
2022-08-24T12:10:09.203Z,29.56
2022-08-24T12:11:29.619Z,29.55
2022-08-24T12:12:54.626Z,29.56
2022-08-24T12:14:33.532Z,29.55
2022-08-24T12:16:03.172Z,29.53
2022-08-24T12:17:12.926Z,29.55
2022-08-24T12:18:31.063Z,29.52
2022-08-24T12:19:42.017Z,29.52
2022-08-24T12:20:49.424Z,29.61
2022-08-24T12:21:55.788Z,29.58
2022-08-24T12:23:02.652Z,29.66
2022-08-24T12:24:08.913Z,29.70
2022-08-24T12:25:42.769Z,29.68
2022-08-24T12:26:49.845Z,29.67
2022-08-24T12:27:52.422Z,29.74
2022-08-24T12:29:01.431Z,29.81
2022-08-24T12:30:07.620Z,29.87
2022-08-24T12:31:31.170Z,29.83
2022-08-24T12:32:47.920Z,29.80
2022-08-24T12:33:54.227Z,29.78
2022-08-24T12:34:59.027Z,29.75
2022-08-24T12:36:07.517Z,29.68
2022-08-24T12:37:30.577Z,29.67
2022-08-24T12:38:38.239Z,29.63
2022-08-24T12:39:54.270Z,29.64
2022-08-24T12:41:02.357Z,29.66
2022-08-24T12:42:19.046Z,29.65
2022-08-24T12:43:30.895Z,29.62
2022-08-24T12:44:45.540Z,29.71
2022-08-24T12:45:47.734Z,29.72
2022-08-24T12:46:54.408Z,29.72
2022-08-24T12:48:22.204Z,29.77
2022-08-24T12:49:27.748Z,29.81
2022-08-24T12:51:16.318Z,29.86
2022-08-24T12:52:29.688Z,29.89
2022-08-24T12:53:34.232Z,29.90
2022-08-24T12:54:43.246Z,29.85
2022-08-24T12:55:53.780Z,29.88
2022-08-24T12:57:25.887Z,29.95
2022-08-24T12:58:53.757Z,29.90
2022-08-24T13:00:04.861Z,29.90
2022-08-24T13:01:07.666Z,29.95
2022-08-24T13:02:15.236Z,29.94
2022-08-24T13:03:33.272Z,29.91
2022-08-24T13:04:50.208Z,29.90
2022-08-24T13:05:57.870Z,29.88
2022-08-24T13:07:05.610Z,29.87
2022-08-24T13:08:41.275Z,29.93
2022-08-24T13:09:57.975Z,29.96
2022-08-24T13:11:06.099Z,29.99
2022-08-24T13:12:32.951Z,30.04
2022-08-24T13:13:45.389Z,30.14
2022-08-24T13:14:51.045Z,30.16
2022-08-24T13:15:59.410Z,30.10
2022-08-24T13:17:00.968Z,30.06
2022-08-24T13:18:09.268Z,30.02
2022-08-24T13:19:23.060Z,29.99
2022-08-24T13:20:27.545Z,30.05
2022-08-24T13:22:10.738Z,30.08
2022-08-24T13:23:12.959Z,30.12
2022-08-24T13:24:43.840Z,30.16
2022-08-24T13:25:48.103Z,30.06
2022-08-24T13:26:49.690Z,30.03
2022-08-24T13:28:04.713Z,30.16
2022-08-24T13:29:07.872Z,30.23
2022-08-24T13:30:28.055Z,30.23
2022-08-24T13:31:34.995Z,30.19
2022-08-24T13:33:04.321Z,30.13
2022-08-24T13:34:05.853Z,30.06
2022-08-24T13:35:35.005Z,30.01
2022-08-24T13:37:11.241Z,29.98
2022-08-24T13:38:34.706Z,30.03
2022-08-24T13:40:02.084Z,30.03
2022-08-24T13:41:15.661Z,30.01
2022-08-24T13:42:46.814Z,30.03
2022-08-24T13:43:51.452Z,30.01
2022-08-24T13:45:18.100Z,30.05
2022-08-24T13:46:40.683Z,30.14
2022-08-24T13:47:57.971Z,30.18
2022-08-24T13:49:24.908Z,30.19
2022-08-24T13:50:59.693Z,30.21
2022-08-24T13:52:29.715Z,30.15
2022-08-24T13:53:52.673Z,30.13
2022-08-24T13:55:04.341Z,30.05
2022-08-24T13:56:18.126Z,29.91
2022-08-24T13:57:36.682Z,29.89
2022-08-24T13:58:46.985Z,29.92
2022-08-24T13:59:57.636Z,29.97
2022-08-24T14:01:18.448Z,29.99
2022-08-24T14:02:45.377Z,29.98
2022-08-24T14:04:00.095Z,30.01
2022-08-24T14:05:23.399Z,29.97
2022-08-24T14:06:36.207Z,29.92
2022-08-24T14:08:13.200Z,29.85
2022-08-24T14:09:26.171Z,29.84
2022-08-24T14:10:59.912Z,29.86
2022-08-24T14:12:12.093Z,29.86
2022-08-24T14:13:35.338Z,29.89
2022-08-24T14:14:42.932Z,29.94
2022-08-24T14:16:16.878Z,29.96
2022-08-24T14:18:03.744Z,30.06
2022-08-24T14:19:25.756Z,29.88
2022-08-24T14:20:48.438Z,29.85
2022-08-24T14:22:11.593Z,29.87
2022-08-24T14:23:46.063Z,29.75
2022-08-24T14:24:56.112Z,29.66
2022-08-24T14:26:40.949Z,29.61
2022-08-24T14:27:46.348Z,29.58
2022-08-24T14:28:48.473Z,29.52
2022-08-24T14:29:50.408Z,29.48
2022-08-24T14:31:13.731Z,29.38
2022-08-24T14:32:24.495Z,29.34
2022-08-24T14:33:33.238Z,29.31
2022-08-24T14:35:04.417Z,29.34
2022-08-24T14:36:19.223Z,29.38
2022-08-24T14:37:30.555Z,29.38
2022-08-24T14:38:46.068Z,29.43
2022-08-24T14:40:08.939Z,29.47
2022-08-24T14:41:32.075Z,29.43
2022-08-24T14:42:37.847Z,29.24
2022-08-24T14:44:13.124Z,29.15
2022-08-24T14:45:33.441Z,28.92
2022-08-24T14:47:11.302Z,28.74
2022-08-24T14:48:32.533Z,28.42
2022-08-24T14:49:36.558Z,28.06
2022-08-24T14:50:48.780Z,27.53
2022-08-24T14:52:08.384Z,27.08
2022-08-24T14:53:20.974Z,26.66
2022-08-24T14:54:57.121Z,26.28